createdAt,value
2022-09-07T00:00:58.211Z,2.72
2022-09-07T00:03:45.969Z,2.72
2022-09-07T00:06:34.632Z,3.05
2022-09-07T00:09:22.350Z,2.50
2022-09-07T00:12:10.145Z,2.45
2022-09-07T00:14:57.880Z,2.72
2022-09-07T00:17:45.694Z,2.55
2022-09-07T00:20:33.594Z,3.17
2022-09-07T00:23:21.333Z,3.10
2022-09-07T00:26:19.463Z,3.15
2022-09-07T00:29:07.933Z,3.00
2022-09-07T00:31:55.737Z,3.17
2022-09-07T00:34:43.557Z,3.40
2022-09-07T00:37:31.336Z,2.92
2022-09-07T00:40:19.117Z,3.22
2022-09-07T00:43:07.462Z,3.13
2022-09-07T00:45:55.467Z,2.90
2022-09-07T00:49:08.081Z,2.63
2022-09-07T00:52:01.335Z,3.00
2022-09-07T00:54:55.050Z,3.10
2022-09-07T00:57:49.181Z,2.78
2022-09-07T01:03:31.033Z,3.17
2022-09-07T01:06:39.655Z,2.88
2022-09-07T01:09:28.232Z,3.05
2022-09-07T01:12:16.082Z,3.55
2022-09-07T01:15:04.718Z,3.30
2022-09-07T01:18:12.980Z,3.40
2022-09-07T01:21:22.081Z,3.80
2022-09-07T01:24:55.673Z,4.38
2022-09-07T01:28:11.080Z,3.38
2022-09-07T01:31:13.818Z,4.20
2022-09-07T01:34:25.873Z,4.50
2022-09-07T01:37:24.393Z,4.22
2022-09-07T01:40:41.015Z,3.95
2022-09-07T01:43:46.246Z,3.92
2022-09-07T01:46:49.318Z,3.55
2022-09-07T01:49:51.423Z,3.30
2022-09-07T01:53:09.725Z,3.50
2022-09-07T01:56:28.053Z,3.75
2022-09-07T01:59:35.915Z,3.60
2022-09-07T02:02:35.552Z,3.45
2022-09-07T02:05:40.703Z,3.90
2022-09-07T02:08:37.853Z,3.22
2022-09-07T02:11:43.854Z,3.80
2022-09-07T02:14:37.814Z,3.90
2022-09-07T02:17:33.975Z,3.63
2022-09-07T02:20:33.517Z,4.50
2022-09-07T02:23:26.534Z,4.38
2022-09-07T02:26:22.695Z,4.25
2022-09-07T02:29:10.481Z,5.00
2022-09-07T02:31:58.442Z,4.70
2022-09-07T02:34:46.296Z,4.75
2022-09-07T02:37:35.464Z,5.47
2022-09-07T02:40:23.433Z,5.97
2022-09-07T02:43:12.017Z,5.32
2022-09-07T02:47:06.046Z,5.35
2022-09-07T02:50:30.600Z,6.55
2022-09-07T02:53:52.667Z,7.55
2022-09-07T02:57:13.592Z,8.25
2022-09-07T03:00:13.447Z,7.90
2022-09-07T03:03:39.194Z,7.18
2022-09-07T03:06:35.183Z,8.73
2022-09-07T03:09:28.628Z,8.90
2022-09-07T03:12:17.400Z,8.87
2022-09-07T03:15:05.877Z,9.75
2022-09-07T03:17:54.196Z,9.10
2022-09-07T03:20:42.002Z,9.38
2022-09-07T03:23:29.776Z,8.95
2022-09-07T03:26:25.101Z,10.45
2022-09-07T03:29:13.308Z,10.57
2022-09-07T03:32:01.090Z,10.75
2022-09-07T03:34:48.855Z,10.93
2022-09-07T03:37:38.357Z,10.65
2022-09-07T03:40:26.194Z,10.60
2022-09-07T03:43:14.020Z,11.82
2022-09-07T03:46:05.645Z,10.30
2022-09-07T03:48:53.813Z,11.60
2022-09-07T03:51:41.630Z,10.27
2022-09-07T03:54:29.506Z,12.57
2022-09-07T03:57:17.305Z,12.52
2022-09-07T04:00:06.219Z,14.45
2022-09-07T04:02:54.089Z,15.02
2022-09-07T04:05:41.901Z,8.95
2022-09-07T04:08:32.386Z,9.82
2022-09-07T04:11:20.283Z,9.02
2022-09-07T04:14:09.721Z,8.77
2022-09-07T04:16:57.576Z,8.30
2022-09-07T04:19:45.384Z,8.15
2022-09-07T04:22:33.135Z,8.05
2022-09-07T04:25:20.938Z,7.65
2022-09-07T04:28:08.856Z,8.02
2022-09-07T04:31:01.999Z,8.05
2022-09-07T04:33:51.310Z,7.45
2022-09-07T04:36:39.197Z,6.82
2022-09-07T04:39:27.024Z,6.60
2022-09-07T04:42:14.867Z,6.78
2022-09-07T04:45:03.573Z,7.05
2022-09-07T04:47:51.755Z,7.13
2022-09-07T04:50:39.485Z,6.45
2022-09-07T04:53:27.270Z,7.18
2022-09-07T04:56:17.129Z,6.90
2022-09-07T04:59:04.994Z,6.93
2022-09-07T05:01:53.003Z,6.97
2022-09-07T05:04:40.769Z,6.72
2022-09-07T05:07:28.536Z,6.55
2022-09-07T05:10:16.354Z,7.43
2022-09-07T05:13:04.209Z,6.57
2022-09-07T05:15:51.980Z,6.03
2022-09-07T05:18:39.863Z,6.07
2022-09-07T05:21:33.442Z,5.97
2022-09-07T05:24:22.996Z,5.45
2022-09-07T05:27:11.168Z,5.32
2022-09-07T05:32:52.763Z,5.78
2022-09-07T05:35:40.596Z,6.10
2022-09-07T05:38:29.092Z,5.93
2022-09-07T05:41:19.814Z,5.93
2022-09-07T05:47:15.568Z,6.07
2022-09-07T05:50:04.533Z,6.75
2022-09-07T05:52:52.787Z,6.05
2022-09-07T05:55:40.636Z,7.68
2022-09-07T05:58:29.283Z,7.68
2022-09-07T06:01:18.237Z,6.35
2022-09-07T06:04:06.366Z,8.75
2022-09-07T06:13:09.543Z,5.80
2022-09-07T06:16:05.373Z,5.40
2022-09-07T06:18:53.128Z,6.05
2022-09-07T06:21:40.942Z,5.43
2022-09-07T06:24:28.710Z,5.13
2022-09-07T06:27:16.466Z,5.90
2022-09-07T06:30:05.184Z,5.63
2022-09-07T06:32:52.938Z,5.25
2022-09-07T06:35:40.706Z,5.50
2022-09-07T06:38:38.496Z,4.68
2022-09-07T06:44:36.957Z,5.78
2022-09-07T06:47:24.732Z,4.88
2022-09-07T06:50:13.609Z,6.30
2022-09-07T06:56:15.622Z,4.97
2022-09-07T06:59:03.417Z,5.72
2022-09-07T07:01:51.222Z,6.32
2022-09-07T07:04:41.138Z,5.47
2022-09-07T07:07:29.510Z,6.40
2022-09-07T07:10:22.208Z,6.38
2022-09-07T07:13:12.242Z,5.90
2022-09-07T07:16:12.392Z,5.30
2022-09-07T07:19:00.255Z,5.30
2022-09-07T07:22:10.829Z,5.70
2022-09-07T07:24:55.729Z,4.68
2022-09-07T07:27:45.823Z,5.45
2022-09-07T07:30:38.555Z,5.18
2022-09-07T07:33:34.539Z,4.72
2022-09-07T07:36:25.667Z,4.90
2022-09-07T07:42:26.365Z,5.82
2022-09-07T07:48:25.262Z,5.32
2022-09-07T07:51:15.364Z,5.03
2022-09-07T07:54:03.111Z,5.55
2022-09-07T07:56:50.801Z,4.85
2022-09-07T07:59:39.297Z,5.13
2022-09-07T08:02:27.130Z,5.28
2022-09-07T08:05:17.005Z,4.07
2022-09-07T08:08:04.744Z,4.65
2022-09-07T08:10:53.040Z,3.80
2022-09-07T08:13:42.818Z,5.00
2022-09-07T08:16:30.784Z,4.35
2022-09-07T08:19:18.520Z,4.13
2022-09-07T08:22:07.794Z,4.15
2022-09-07T08:24:58.210Z,4.28
2022-09-07T08:27:46.038Z,3.95
2022-09-07T08:30:33.883Z,3.33
2022-09-07T08:33:23.076Z,3.05
2022-09-07T08:36:17.920Z,4.00
2022-09-07T08:39:08.241Z,3.72
2022-09-07T08:42:31.219Z,3.22
2022-09-07T08:45:32.375Z,3.53
2022-09-07T08:48:31.116Z,4.35
2022-09-07T08:51:43.433Z,4.53
2022-09-07T08:54:31.207Z,3.83
2022-09-07T08:57:30.296Z,4.78
2022-09-07T09:00:23.127Z,4.40
2022-09-07T09:03:32.335Z,4.25
2022-09-07T09:06:47.703Z,4.45
2022-09-07T09:10:30.112Z,4.30
2022-09-07T09:13:57.590Z,3.35
2022-09-07T09:16:55.499Z,3.60
2022-09-07T09:20:01.565Z,4.20
2022-09-07T09:23:13.173Z,3.95
2022-09-07T09:26:18.246Z,3.45
2022-09-07T09:29:21.845Z,3.88
2022-09-07T09:32:39.637Z,3.53
2022-09-07T09:35:44.889Z,3.55
2022-09-07T09:38:43.596Z,3.90
2022-09-07T09:41:41.275Z,3.45
2022-09-07T09:44:37.503Z,3.75
2022-09-07T09:47:32.578Z,3.92
2022-09-07T09:53:57.242Z,4.45
2022-09-07T09:56:47.316Z,4.20
2022-09-07T10:06:25.994Z,4.03
2022-09-07T10:09:22.512Z,4.10
2022-09-07T10:12:35.181Z,4.20
2022-09-07T10:15:40.587Z,3.63
2022-09-07T10:18:54.198Z,4.30
2022-09-07T10:22:00.482Z,4.13
2022-09-07T10:24:51.338Z,3.70
2022-09-07T10:27:46.771Z,4.35
2022-09-07T10:30:49.650Z,3.50
2022-09-07T10:34:27.233Z,4.22
2022-09-07T10:37:36.390Z,3.78
2022-09-07T10:40:40.630Z,3.35
2022-09-07T10:47:00.260Z,4.25
2022-09-07T10:53:42.135Z,4.05
2022-09-07T10:56:41.824Z,4.10
2022-09-07T11:00:08.251Z,3.50
2022-09-07T11:03:47.162Z,3.83
2022-09-07T11:06:41.397Z,3.00
2022-09-07T11:09:42.793Z,3.35
2022-09-07T11:12:39.327Z,3.70
2022-09-07T11:15:33.287Z,3.78
2022-09-07T11:21:56.206Z,3.30
2022-09-07T11:28:38.233Z,3.13
2022-09-07T11:31:45.610Z,2.92
2022-09-07T11:34:45.996Z,3.13
2022-09-07T11:37:43.638Z,3.05
2022-09-07T11:40:36.041Z,3.33
2022-09-07T11:43:41.314Z,2.40
2022-09-07T11:46:41.819Z,3.22
2022-09-07T11:49:30.745Z,2.85
2022-09-07T11:52:42.330Z,2.60
2022-09-07T11:55:38.690Z,2.75
2022-09-07T11:59:09.267Z,2.72
2022-09-07T12:02:32.335Z,2.80
2022-09-07T12:05:55.351Z,1.92
2022-09-07T12:09:14.262Z,3.20
2022-09-07T12:12:44.115Z,3.00
2022-09-07T12:15:50.119Z,3.15
2022-09-07T12:18:46.630Z,3.13
2022-09-07T12:21:44.112Z,2.88
2022-09-07T12:24:46.766Z,2.63
2022-09-07T12:27:34.341Z,2.30
2022-09-07T12:30:22.053Z,2.80
2022-09-07T12:33:37.397Z,2.30
2022-09-07T12:36:28.212Z,2.20
2022-09-07T12:39:30.317Z,2.13
2022-09-07T12:42:36.721Z,2.40
2022-09-07T12:45:30.949Z,2.10
2022-09-07T12:55:29.310Z,2.13
2022-09-07T12:58:30.519Z,2.45
2022-09-07T13:01:33.359Z,2.05
2022-09-07T13:04:58.162Z,2.22
2022-09-07T13:11:15.271Z,1.73
2022-09-07T13:14:16.902Z,2.08
2022-09-07T13:17:36.172Z,3.40
2022-09-07T13:20:30.280Z,3.80
2022-09-07T13:26:12.773Z,2.85
2022-09-07T13:29:12.944Z,3.00
2022-09-07T13:32:19.958Z,3.47
2022-09-07T13:35:21.439Z,3.65
2022-09-07T13:38:13.718Z,3.53
2022-09-07T13:41:14.927Z,4.20
2022-09-07T13:44:04.296Z,4.22
2022-09-07T13:47:22.691Z,3.53
2022-09-07T13:50:13.103Z,3.08
2022-09-07T13:53:53.323Z,2.92
2022-09-07T13:57:21.259Z,2.33
2022-09-07T14:00:16.785Z,2.25
2022-09-07T14:03:07.411Z,2.30
2022-09-07T14:06:25.463Z,2.15
2022-09-07T14:09:21.884Z,2.70
2022-09-07T14:12:16.577Z,2.17
2022-09-07T14:15:41.020Z,2.05
2022-09-07T14:18:32.940Z,2.75
2022-09-07T14:21:20.872Z,2.28
2022-09-07T14:24:24.655Z,2.10
2022-09-07T14:27:37.090Z,2.58
2022-09-07T14:30:36.427Z,2.17
2022-09-07T14:33:24.320Z,2.20
2022-09-07T14:36:29.812Z,2.35
2022-09-07T14:39:23.890Z,2.10
2022-09-07T14:42:22.134Z,2.15
2022-09-07T14:45:26.496Z,2.17
2022-09-07T14:48:14.766Z,1.97
2022-09-07T14:51:29.061Z,2.08
2022-09-07T14:54:38.508Z,2.28
2022-09-07T14:57:32.246Z,1.77
2022-09-07T15:00:45.165Z,2.10
2022-09-07T15:03:53.042Z,1.73
2022-09-07T15:07:02.293Z,2.47
2022-09-07T15:09:50.744Z,2.10
2022-09-07T15:12:43.009Z,2.00
2022-09-07T15:15:33.776Z,1.83
2022-09-07T15:18:59.059Z,2.45
2022-09-07T15:21:46.788Z,2.05
2022-09-07T15:24:35.606Z,2.58
2022-09-07T15:27:30.270Z,2.00
2022-09-07T15:30:20.317Z,2.40
2022-09-07T15:33:08.938Z,2.63
2022-09-07T15:35:56.700Z,1.90
2022-09-07T15:39:00.280Z,2.10
2022-09-07T15:44:36.206Z,2.38
2022-09-07T15:47:43.524Z,2.30
2022-09-07T15:50:41.984Z,2.05
2022-09-07T15:56:37.822Z,2.88
2022-09-07T15:59:25.908Z,2.35
2022-09-07T16:05:23.276Z,2.40
2022-09-07T16:08:32.742Z,2.08
2022-09-07T16:11:24.436Z,2.42
2022-09-07T16:14:13.619Z,2.00
2022-09-07T16:20:10.085Z,2.33
2022-09-07T16:23:13.892Z,2.25
2022-09-07T16:26:04.401Z,2.38
2022-09-07T16:28:53.632Z,2.05
2022-09-07T16:32:44.055Z,2.55
2022-09-07T16:34:49.269Z,2.10
2022-09-07T16:37:37.253Z,2.60
2022-09-07T16:40:28.845Z,2.72
2022-09-07T16:43:21.626Z,2.60
2022-09-07T16:46:17.102Z,2.10
2022-09-07T16:49:07.096Z,2.70
2022-09-07T16:51:54.955Z,2.45
2022-09-07T16:54:42.717Z,2.65
2022-09-07T16:58:35.284Z,2.15
2022-09-07T17:00:40.351Z,2.50
2022-09-07T17:03:28.427Z,2.63
2022-09-07T17:06:18.218Z,2.83
2022-09-07T17:09:06.439Z,2.60
2022-09-07T17:11:54.153Z,2.65
2022-09-07T17:14:42.003Z,2.53
2022-09-07T17:17:29.818Z,2.80
2022-09-07T17:20:17.989Z,2.90
2022-09-07T17:23:05.763Z,3.30
2022-09-07T17:26:02.198Z,3.00
2022-09-07T17:28:52.113Z,3.45
2022-09-07T17:34:47.581Z,2.88
2022-09-07T17:37:35.360Z,3.25
2022-09-07T17:40:24.399Z,3.60
2022-09-07T17:46:23.677Z,3.25
2022-09-07T17:49:16.384Z,3.55
2022-09-07T17:52:04.664Z,3.95
2022-09-07T17:54:55.332Z,3.70
2022-09-07T17:57:43.123Z,4.45
2022-09-07T18:00:31.017Z,3.58
2022-09-07T18:03:18.963Z,3.53
2022-09-07T18:06:07.397Z,3.42
2022-09-07T18:08:55.154Z,4.35
2022-09-07T18:11:48.023Z,4.00
2022-09-07T18:14:36.614Z,4.38
2022-09-07T18:17:24.478Z,3.50
2022-09-07T18:20:12.347Z,4.38
2022-09-07T18:23:01.127Z,3.90
2022-09-07T18:25:58.580Z,4.03
2022-09-07T18:29:19.209Z,4.03
2022-09-07T18:32:08.293Z,3.75
2022-09-07T18:34:56.897Z,3.95
2022-09-07T18:37:44.635Z,3.53
2022-09-07T18:40:36.518Z,4.32
2022-09-07T18:43:26.174Z,4.03
2022-09-07T18:46:21.696Z,3.63
2022-09-07T18:49:09.554Z,4.10
2022-09-07T18:55:07.843Z,4.20
2022-09-07T18:57:55.876Z,4.45
2022-09-07T19:00:45.945Z,3.60
2022-09-07T19:03:34.594Z,4.63
2022-09-07T19:06:24.453Z,3.92
2022-09-07T19:09:12.630Z,4.35
2022-09-07T19:12:00.513Z,4.20
2022-09-07T19:14:50.726Z,4.00
2022-09-07T19:17:38.502Z,4.80
2022-09-07T19:20:28.686Z,3.97
2022-09-07T19:23:16.445Z,4.38
2022-09-07T19:26:06.869Z,4.55
2022-09-07T19:28:57.827Z,4.60
2022-09-07T19:32:03.997Z,4.38
2022-09-07T19:34:54.575Z,4.18
2022-09-07T19:37:42.341Z,4.32
2022-09-07T19:40:30.102Z,4.50
2022-09-07T19:43:17.817Z,4.10
2022-09-07T19:46:05.639Z,4.13
2022-09-07T19:48:53.392Z,3.60
2022-09-07T19:51:42.402Z,3.65
2022-09-07T19:54:30.634Z,3.53
2022-09-07T19:57:18.525Z,3.50
2022-09-07T20:00:07.068Z,3.67
2022-09-07T20:02:54.960Z,3.17
2022-09-07T20:05:42.705Z,4.35
2022-09-07T20:08:30.475Z,3.58
2022-09-07T20:11:22.163Z,4.10
2022-09-07T20:14:10.448Z,3.50
2022-09-07T20:16:58.294Z,3.53
2022-09-07T20:19:46.015Z,4.20
2022-09-07T20:22:33.789Z,4.15
2022-09-07T20:25:21.812Z,3.40
2022-09-07T20:28:09.599Z,4.25
2022-09-07T20:30:57.472Z,3.90
2022-09-07T20:33:46.895Z,4.38
2022-09-07T20:36:34.775Z,4.55
2022-09-07T20:39:22.813Z,4.15
2022-09-07T20:42:10.682Z,4.75
2022-09-07T20:44:58.409Z,5.25
2022-09-07T20:47:46.238Z,6.07
2022-09-07T20:50:34.035Z,5.60
2022-09-07T20:53:21.820Z,4.53
2022-09-07T20:56:18.704Z,5.25
2022-09-07T20:59:06.819Z,5.03
2022-09-07T21:01:54.688Z,4.63
2022-09-07T21:04:43.362Z,4.97
2022-09-07T21:07:31.229Z,4.97
2022-09-07T21:10:19.052Z,5.05
2022-09-07T21:13:09.754Z,4.57
2022-09-07T21:15:57.547Z,4.32
2022-09-07T21:18:45.336Z,4.93
2022-09-07T21:21:40.060Z,4.85
2022-09-07T21:24:30.747Z,4.88
2022-09-07T21:27:18.549Z,4.32
2022-09-07T21:30:07.314Z,4.18
2022-09-07T21:32:55.467Z,4.10
2022-09-07T21:35:45.448Z,4.32
2022-09-07T21:38:35.211Z,4.18
2022-09-07T21:41:25.021Z,4.38
2022-09-07T21:44:14.752Z,4.60
2022-09-07T21:47:02.525Z,4.38
2022-09-07T21:49:50.992Z,4.05
2022-09-07T21:52:38.935Z,4.25
2022-09-07T21:55:26.778Z,4.32
2022-09-07T21:58:15.241Z,3.92
2022-09-07T22:01:18.366Z,5.30
2022-09-07T22:04:07.031Z,4.40
2022-09-07T22:06:54.928Z,4.20
2022-09-07T22:09:42.843Z,4.05
2022-09-07T22:12:31.034Z,4.40
2022-09-07T22:15:18.764Z,5.15
2022-09-07T22:18:15.934Z,4.88
2022-09-07T22:21:10.578Z,3.90
2022-09-07T22:24:02.043Z,3.92
2022-09-07T22:26:49.874Z,3.88
2022-09-07T22:29:37.606Z,3.85
2022-09-07T22:32:25.415Z,4.18
2022-09-07T22:35:14.061Z,4.28
2022-09-07T22:38:01.953Z,4.25
2022-09-07T22:40:49.705Z,4.05
2022-09-07T22:43:38.134Z,4.05
2022-09-07T22:46:29.803Z,4.13
2022-09-07T22:49:17.765Z,4.38
2022-09-07T22:52:05.750Z,4.75
2022-09-07T22:54:53.486Z,3.95
2022-09-07T22:57:41.219Z,3.97
2022-09-07T23:00:29.883Z,4.28
2022-09-07T23:03:18.425Z,4.22
2022-09-07T23:06:06.334Z,3.90
2022-09-07T23:08:56.597Z,3.83
2022-09-07T23:11:46.538Z,3.17
2022-09-07T23:14:34.418Z,3.40
2022-09-07T23:17:22.170Z,3.15
2022-09-07T23:20:10.226Z,3.60
2022-09-07T23:22:57.965Z,3.42
2022-09-07T23:25:45.658Z,3.40
2022-09-07T23:28:33.903Z,3.42
2022-09-07T23:31:22.653Z,3.72
2022-09-07T23:34:11.161Z,3.55
2022-09-07T23:36:58.937Z,3.17
2022-09-07T23:39:47.435Z,3.50
2022-09-07T23:42:35.213Z,3.55
2022-09-07T23:45:22.980Z,3.45
2022-09-07T23:48:10.726Z,3.53
2022-09-07T23:50:58.560Z,3.50
2022-09-07T23:53:46.518Z,3.50
2022-09-07T23:56:36.703Z,2.95
2022-09-07T23:59:24.461Z,3.28
